sensor_id;sensor_type;location;lat;lon;timestamp;temperature;humidity
8402;DHT22;4238;48.404;9.498;2024-03-23T05:00:26;9.70;1.00
8402;DHT22;4238;48.404;9.498;2024-03-23T05:02:53;9.80;1.00
8402;DHT22;4238;48.404;9.498;2024-03-23T05:05:19;9.90;1.00
8402;DHT22;4238;48.404;9.498;2024-03-23T05:07:46;9.80;1.00
8402;DHT22;4238;48.404;9.498;2024-03-23T05:10:12;9.80;1.00
8402;DHT22;4238;48.404;9.498;2024-03-23T05:12:39;9.70;1.00
8402;DHT22;4238;48.404;9.498;2024-03-23T05:15:05;9.70;1.00
8402;DHT22;4238;48.404;9.498;2024-03-23T05:17:34;9.70;1.00
8402;DHT22;4238;48.404;9.498;2024-03-23T05:20:00;9.60;1.00
8402;DHT22;4238;48.404;9.498;2024-03-23T05:22:28;9.50;1.00
8402;DHT22;4238;48.404;9.498;2024-03-23T05:24:54;9.50;1.00
8402;DHT22;4238;48.404;9.498;2024-03-23T05:27:21;9.50;1.00
8402;DHT22;4238;48.404;9.498;2024-03-23T05:29:47;9.50;1.00
8402;DHT22;4238;48.404;9.498;2024-03-23T05:32:14;9.60;1.00
8402;DHT22;4238;48.404;9.498;2024-03-23T05:34:41;9.70;1.00
8402;DHT22;4238;48.404;9.498;2024-03-23T05:37:08;9.80;1.00
8402;DHT22;4238;48.404;9.498;2024-03-23T05:39:34;9.90;1.00
8402;DHT22;4238;48.404;9.498;2024-03-23T05:42:00;10.00;1.00
8402;DHT22;4238;48.404;9.498;2024-03-23T05:44:26;10.00;1.00
8402;DHT22;4238;48.404;9.498;2024-03-23T05:46:53;10.00;1.00
8402;DHT22;4238;48.404;9.498;2024-03-23T05:49:19;10.10;1.00
8402;DHT22;4238;48.404;9.498;2024-03-23T05:51:48;10.10;1.00
8402;DHT22;4238;48.404;9.498;2024-03-23T05:54:13;10.00;1.00
8402;DHT22;4238;48.404;9.498;2024-03-23T05:56:41;10.10;1.00
8402;DHT22;4238;48.404;9.498;2024-03-23T05:59:07;10.10;1.00
8402;DHT22;4238;48.404;9.498;2024-03-23T06:01:34;10.00;1.00
8402;DHT22;4238;48.404;9.498;2024-03-23T06:04:00;10.00;1.00
8402;DHT22;4238;48.404;9.498;2024-03-23T06:06:28;9.80;36.70
8402;DHT22;4238;48.404;9.498;2024-03-23T06:08:57;9.50;66.40
8402;DHT22;4238;48.404;9.498;2024-03-23T06:11:23;9.30;92.20
8402;DHT22;4238;48.404;9.498;2024-03-23T06:13:49;9.10;98.90
8402;DHT22;4238;48.404;9.498;2024-03-23T06:16:16;8.90;99.90
8402;DHT22;4238;48.404;9.498;2024-03-23T06:18:42;8.70;99.90
8402;DHT22;4238;48.404;9.498;2024-03-23T06:21:13;8.50;99.90
8402;DHT22;4238;48.404;9.498;2024-03-23T06:23:40;8.30;99.90
8402;DHT22;4238;48.404;9.498;2024-03-23T06:26:10;8.30;99.90
8402;DHT22;4238;48.404;9.498;2024-03-23T06:28:36;8.20;99.90
8402;DHT22;4238;48.404;9.498;2024-03-23T06:31:03;8.10;99.90
8402;DHT22;4238;48.404;9.498;2024-03-23T06:33:29;8.00;99.90
8402;DHT22;4238;48.404;9.498;2024-03-23T06:35:55;8.00;99.90
8402;DHT22;4238;48.404;9.498;2024-03-23T06:38:21;8.10;99.90
8402;DHT22;4238;48.404;9.498;2024-03-23T06:40:48;8.00;99.90
8402;DHT22;4238;48.404;9.498;2024-03-23T06:43:17;7.90;99.90
8402;DHT22;4238;48.404;9.498;2024-03-23T06:45:44;8.00;99.90
8402;DHT22;4238;48.404;9.498;2024-03-23T06:48:17;7.90;99.90
8402;DHT22;4238;48.404;9.498;2024-03-23T06:50:45;7.90;99.90
8402;DHT22;4238;48.404;9.498;2024-03-23T06:53:11;8.00;99.90
8402;DHT22;4238;48.404;9.498;2024-03-23T06:55:40;8.00;99.90
8402;DHT22;4238;48.404;9.498;2024-03-23T06:58:06;8.00;99.90
8402;DHT22;4238;48.404;9.498;2024-03-23T07:00:34;8.00;99.90
8402;DHT22;4238;48.404;9.498;2024-03-23T07:03:01;8.00;99.90
8402;DHT22;4238;48.404;9.498;2024-03-23T07:05:29;7.90;99.90
8402;DHT22;4238;48.404;9.498;2024-03-23T07:07:55;7.80;99.90
8402;DHT22;4238;48.404;9.498;2024-03-23T07:10:22;7.80;99.90
8402;DHT22;4238;48.404;9.498;2024-03-23T07:12:47;7.70;99.90
8402;DHT22;4238;48.404;9.498;2024-03-23T07:15:14;7.70;99.90
8402;DHT22;4238;48.404;9.498;2024-03-23T07:17:46;7.60;99.90
8402;DHT22;4238;48.404;9.498;2024-03-23T07:20:13;7.40;99.90
8402;DHT22;4238;48.404;9.498;2024-03-23T07:22:39;7.30;99.90
8402;DHT22;4238;48.404;9.498;2024-03-23T07:25:07;7.20;99.90
8402;DHT22;4238;48.404;9.498;2024-03-23T07:27:33;7.10;99.90
8402;DHT22;4238;48.404;9.498;2024-03-23T07:30:01;7.00;99.90
8402;DHT22;4238;48.404;9.498;2024-03-23T07:32:27;7.00;99.90
8402;DHT22;4238;48.404;9.498;2024-03-23T07:34:56;7.00;99.90
8402;DHT22;4238;48.404;9.498;2024-03-23T07:37:21;7.00;99.90
8402;DHT22;4238;48.404;9.498;2024-03-23T07:39:49;6.90;99.90
8402;DHT22;4238;48.404;9.498;2024-03-23T07:42:15;6.90;99.90
8402;DHT22;4238;48.404;9.498;2024-03-23T07:44:45;6.90;99.90
8402;DHT22;4238;48.404;9.498;2024-03-23T07:47:12;6.90;99.90
8402;DHT22;4238;48.404;9.498;2024-03-23T07:49:39;7.00;99.90
8402;DHT22;4238;48.404;9.498;2024-03-23T07:52:07;7.10;99.90
8402;DHT22;4238;48.404;9.498;2024-03-23T07:54:34;7.20;99.90
8402;DHT22;4238;48.404;9.498;2024-03-23T07:57:00;7.30;99.90
8402;DHT22;4238;48.404;9.498;2024-03-23T07:59:27;7.50;99.90
8402;DHT22;4238;48.404;9.498;2024-03-23T08:01:53;7.60;93.60
8402;DHT22;4238;48.404;9.498;2024-03-23T08:04:22;7.70;99.90
8402;DHT22;4238;48.404;9.498;2024-03-23T08:06:50;7.70;97.30
8402;DHT22;4238;48.404;9.498;2024-03-23T08:09:27;7.70;89.10
8402;DHT22;4238;48.404;9.498;2024-03-23T08:12:18;7.60;92.50
8402;DHT22;4238;48.404;9.498;2024-03-23T08:14:59;7.70;89.00
8402;DHT22;4238;48.404;9.498;2024-03-23T08:17:29;8.00;79.80
8402;DHT22;4238;48.404;9.498;2024-03-23T08:20:33;8.10;63.90
8402;DHT22;4238;48.404;9.498;2024-03-23T08:23:06;8.10;72.50
8402;DHT22;4238;48.404;9.498;2024-03-23T08:25:57;8.10;41.00
8402;DHT22;4238;48.404;9.498;2024-03-23T08:28:25;8.30;62.30
8402;DHT22;4238;48.404;9.498;2024-03-23T08:31:00;8.30;52.50
8402;DHT22;4238;48.404;9.498;2024-03-23T08:33:26;8.40;45.30
8402;DHT22;4238;48.404;9.498;2024-03-23T08:35:57;8.30;44.60
8402;DHT22;4238;48.404;9.498;2024-03-23T08:38:31;8.10;54.60
8402;DHT22;4238;48.404;9.498;2024-03-23T08:41:17;7.90;61.20
8402;DHT22;4238;48.404;9.498;2024-03-23T08:44:14;7.50;39.60
8402;DHT22;4238;48.404;9.498;2024-03-23T08:46:46;7.50;52.60
8402;DHT22;4238;48.404;9.498;2024-03-23T08:49:48;7.50;54.70
8402;DHT22;4238;48.404;9.498;2024-03-23T08:52:22;7.70;49.50
8402;DHT22;4238;48.404;9.498;2024-03-23T08:54:53;7.60;36.50
8402;DHT22;4238;48.404;9.498;2024-03-23T08:57:46;7.50;35.20
8402;DHT22;4238;48.404;9.498;2024-03-23T09:00:23;7.50;31.60
8402;DHT22;4238;48.404;9.498;2024-03-23T09:03:01;7.50;40.90
8402;DHT22;4238;48.404;9.498;2024-03-23T09:05:30;7.50;31.90
8402;DHT22;4238;48.404;9.498;2024-03-23T09:08:03;7.50;11.60
8402;DHT22;4238;48.404;9.498;2024-03-23T09:10:30;7.40;8.90
8402;DHT22;4238;48.404;9.498;2024-03-23T09:12:57;7.50;16.30
8402;DHT22;4238;48.404;9.498;2024-03-23T09:15:24;7.50;1.00
8402;DHT22;4238;48.404;9.498;2024-03-23T09:17:50;7.30;1.00
8402;DHT22;4238;48.404;9.498;2024-03-23T09:20:17;7.40;1.00
8402;DHT22;4238;48.404;9.498;2024-03-23T09:22:42;7.70;12.50
8402;DHT22;4238;48.404;9.498;2024-03-23T09:25:09;8.10;1.00
8402;DHT22;4238;48.404;9.498;2024-03-23T09:27:35;8.50;1.00
8402;DHT22;4238;48.404;9.498;2024-03-23T09:30:05;8.30;99.90
8402;DHT22;4238;48.404;9.498;2024-03-23T09:32:31;8.00;1.00
8402;DHT22;4238;48.404;9.498;2024-03-23T09:34:58;7.60;1.00
8402;DHT22;4238;48.404;9.498;2024-03-23T09:37:24;7.30;1.00
8402;DHT22;4238;48.404;9.498;2024-03-23T09:39:51;7.10;1.00
8402;DHT22;4238;48.404;9.498;2024-03-23T09:42:17;6.90;1.00
8402;DHT22;4238;48.404;9.498;2024-03-23T09:44:44;6.80;1.00
8402;DHT22;4238;48.404;9.498;2024-03-23T09:47:11;6.70;1.00
8402;DHT22;4238;48.404;9.498;2024-03-23T09:49:39;6.60;1.00
8402;DHT22;4238;48.404;9.498;2024-03-23T09:52:06;6.50;1.00
8402;DHT22;4238;48.404;9.498;2024-03-23T09:54:32;6.50;1.00
8402;DHT22;4238;48.404;9.498;2024-03-23T09:56:58;6.70;1.00
8402;DHT22;4238;48.404;9.498;2024-03-23T09:59:25;6.80;1.00
8402;DHT22;4238;48.404;9.498;2024-03-23T10:01:52;6.90;1.00
8402;DHT22;4238;48.404;9.498;2024-03-23T10:04:40;7.10;1.00
8402;DHT22;4238;48.404;9.498;2024-03-23T10:07:12;7.40;1.00
8402;DHT22;4238;48.404;9.498;2024-03-23T10:09:40;7.30;1.00
8402;DHT22;4238;48.404;9.498;2024-03-23T10:12:10;7.60;1.00
8402;DHT22;4238;48.404;9.498;2024-03-23T10:14:37;7.80;1.00
8402;DHT22;4238;48.404;9.498;2024-03-23T10:17:14;8.50;1.00
8402;DHT22;4238;48.404;9.498;2024-03-23T10:19:44;8.80;99.90
8402;DHT22;4238;48.404;9.498;2024-03-23T10:22:14;8.70;1.00
8402;DHT22;4238;48.404;9.498;2024-03-23T10:24:41;8.50;99.90
8402;DHT22;4238;48.404;9.498;2024-03-23T10:27:07;8.30;99.90
8402;DHT22;4238;48.404;9.498;2024-03-23T10:29:34;8.30;1.00
8402;DHT22;4238;48.404;9.498;2024-03-23T10:32:10;8.40;99.90
8402;DHT22;4238;48.404;9.498;2024-03-23T10:34:37;8.10;1.00
8402;DHT22;4238;48.404;9.498;2024-03-23T10:37:06;8.30;99.90
8402;DHT22;4238;48.404;9.498;2024-03-23T10:39:34;8.60;1.00
8402;DHT22;4238;48.404;9.498;2024-03-23T10:42:05;9.10;99.90
8402;DHT22;4238;48.404;9.498;2024-03-23T10:44:32;8.90;99.60
8402;DHT22;4238;48.404;9.498;2024-03-23T10:46:59;9.10;1.00
8402;DHT22;4238;48.404;9.498;2024-03-23T10:49:27;9.70;99.90
8402;DHT22;4238;48.404;9.498;2024-03-23T10:51:55;9.90;1.00
8402;DHT22;4238;48.404;9.498;2024-03-23T10:54:24;10.20;1.00
8402;DHT22;4238;48.404;9.498;2024-03-23T10:56:52;10.20;99.90
8402;DHT22;4238;48.404;9.498;2024-03-23T10:59:20;10.50;99.90
8402;DHT22;4238;48.404;9.498;2024-03-23T11:01:56;10.60;99.90
8402;DHT22;4238;48.404;9.498;2024-03-23T11:04:36;10.60;99.90
8402;DHT22;4238;48.404;9.498;2024-03-23T11:07:02;10.00;41.70
8402;DHT22;4238;48.404;9.498;2024-03-23T11:09:43;9.90;1.00
8402;DHT22;4238;48.404;9.498;2024-03-23T11:12:30;10.40;45.00
8402;DHT22;4238;48.404;9.498;2024-03-23T11:15:01;10.60;99.90
8402;DHT22;4238;48.404;9.498;2024-03-23T11:17:28;10.80;1.00
8402;DHT22;4238;48.404;9.498;2024-03-23T11:19:56;11.10;1.00
8402;DHT22;4238;48.404;9.498;2024-03-23T11:22:41;11.60;1.00
8402;DHT22;4238;48.404;9.498;2024-03-23T11:25:17;12.00;1.00
8402;DHT22;4238;48.404;9.498;2024-03-23T11:27:48;11.70;99.90
8402;DHT22;4238;48.404;9.498;2024-03-23T11:30:16;11.00;99.90
8402;DHT22;4238;48.404;9.498;2024-03-23T11:32:45;9.20;1.00
8402;DHT22;4238;48.404;9.498;2024-03-23T11:35:25;8.20;1.00
8402;DHT22;4238;48.404;9.498;2024-03-23T11:38:03;7.90;1.00
8402;DHT22;4238;48.404;9.498;2024-03-23T11:40:30;7.60;99.90
8402;DHT22;4238;48.404;9.498;2024-03-23T11:42:58;7.40;1.00
8402;DHT22;4238;48.404;9.498;2024-03-23T11:45:24;7.00;1.00
8402;DHT22;4238;48.404;9.498;2024-03-23T11:48:02;6.80;1.00
8402;DHT22;4238;48.404;9.498;2024-03-23T11:50:28;6.50;99.90
8402;DHT22;4238;48.404;9.498;2024-03-23T11:53:11;6.10;1.00
8402;DHT22;4238;48.404;9.498;2024-03-23T11:55:42;5.80;1.00
8402;DHT22;4238;48.404;9.498;2024-03-23T11:58:15;5.60;1.00
8402;DHT22;4238;48.404;9.498;2024-03-23T12:00:42;5.30;1.00
8402;DHT22;4238;48.404;9.498;2024-03-23T12:03:09;5.10;1.40
8402;DHT22;4238;48.404;9.498;2024-03-23T12:05:36;5.00;16.00
8402;DHT22;4238;48.404;9.498;2024-03-23T12:08:17;5.00;29.80
8402;DHT22;4238;48.404;9.498;2024-03-23T12:10:48;5.00;24.90
8402;DHT22;4238;48.404;9.498;2024-03-23T12:13:19;5.10;24.50
8402;DHT22;4238;48.404;9.498;2024-03-23T12:15:46;5.10;21.90
8402;DHT22;4238;48.404;9.498;2024-03-23T12:18:14;5.10;28.70
8402;DHT22;4238;48.404;9.498;2024-03-23T12:20:40;5.10;33.80
8402;DHT22;4238;48.404;9.498;2024-03-23T12:23:15;5.20;52.90
8402;DHT22;4238;48.404;9.498;2024-03-23T12:25:44;5.20;28.60
8402;DHT22;4238;48.404;9.498;2024-03-23T12:28:13;5.10;33.00
8402;DHT22;4238;48.404;9.498;2024-03-23T12:30:40;5.10;29.10
8402;DHT22;4238;48.404;9.498;2024-03-23T12:33:07;5.00;31.70
8402;DHT22;4238;48.404;9.498;2024-03-23T12:35:33;4.90;50.20
8402;DHT22;4238;48.404;9.498;2024-03-23T12:38:00;4.90;36.70
8402;DHT22;4238;48.404;9.498;2024-03-23T12:40:26;5.10;54.00
8402;DHT22;4238;48.404;9.498;2024-03-23T12:42:57;5.20;40.80
8402;DHT22;4238;48.404;9.498;2024-03-23T12:45:26;5.30;42.70
8402;DHT22;4238;48.404;9.498;2024-03-23T12:47:56;5.40;50.30
8402;DHT22;4238;48.404;9.498;2024-03-23T12:50:22;5.50;44.80
8402;DHT22;4238;48.404;9.498;2024-03-23T12:52:49;5.60;44.60
8402;DHT22;4238;48.404;9.498;2024-03-23T12:55:16;5.50;35.60
8402;DHT22;4238;48.404;9.498;2024-03-23T12:57:42;5.50;41.30
8402;DHT22;4238;48.404;9.498;2024-03-23T13:00:14;5.80;53.00
8402;DHT22;4238;48.404;9.498;2024-03-23T13:02:42;6.30;63.70
8402;DHT22;4238;48.404;9.498;2024-03-23T13:05:09;6.90;59.50
8402;DHT22;4238;48.404;9.498;2024-03-23T13:07:35;7.20;1.00
8402;DHT22;4238;48.404;9.498;2024-03-23T13:10:03;7.40;1.00
8402;DHT22;4238;48.404;9.498;2024-03-23T13:12:29;7.50;5.90
8402;DHT22;4238;48.404;9.498;2024-03-23T13:14:56;7.30;1.00
8402;DHT22;4238;48.404;9.498;2024-03-23T13:17:24;7.30;1.00
8402;DHT22;4238;48.404;9.498;2024-03-23T13:19:52;7.40;3.90
8402;DHT22;4238;48.404;9.498;2024-03-23T13:22:18;7.50;1.00
8402;DHT22;4238;48.404;9.498;2024-03-23T13:24:46;7.80;1.40
8402;DHT22;4238;48.404;9.498;2024-03-23T13:27:12;8.10;5.70
8402;DHT22;4238;48.404;9.498;2024-03-23T13:29:39;7.90;1.00
8402;DHT22;4238;48.404;9.498;2024-03-23T13:32:05;7.60;1.00
8402;DHT22;4238;48.404;9.498;2024-03-23T13:34:34;7.50;1.00
8402;DHT22;4238;48.404;9.498;2024-03-23T13:37:00;7.60;1.00
8402;DHT22;4238;48.404;9.498;2024-03-23T13:39:28;8.00;1.00
8402;DHT22;4238;48.404;9.498;2024-03-23T13:41:54;7.90;1.00
8402;DHT22;4238;48.404;9.498;2024-03-23T13:44:21;7.50;1.00
8402;DHT22;4238;48.404;9.498;2024-03-23T13:46:48;7.30;1.00
8402;DHT22;4238;48.404;9.498;2024-03-23T13:49:25;7.00;1.00
8402;DHT22;4238;48.404;9.498;2024-03-23T13:51:54;6.80;1.00
8402;DHT22;4238;48.404;9.498;2024-03-23T13:54:21;6.90;1.00
8402;DHT22;4238;48.404;9.498;2024-03-23T13:56:49;7.20;1.00
8402;DHT22;4238;48.404;9.498;2024-03-23T13:59:16;7.30;1.00
8402;DHT22;4238;48.404;9.498;2024-03-23T14:01:42;7.40;1.00
8402;DHT22;4238;48.404;9.498;2024-03-23T14:04:11;7.30;99.90
8402;DHT22;4238;48.404;9.498;2024-03-23T14:06:36;7.30;99.90
8402;DHT22;4238;48.404;9.498;2024-03-23T14:09:05;7.00;99.90
8402;DHT22;4238;48.404;9.498;2024-03-23T14:11:31;6.80;1.00
8402;DHT22;4238;48.404;9.498;2024-03-23T14:13:59;6.80;1.00
8402;DHT22;4238;48.404;9.498;2024-03-23T14:16:27;7.10;1.00
8402;DHT22;4238;48.404;9.498;2024-03-23T14:18:54;7.40;1.00
8402;DHT22;4238;48.404;9.498;2024-03-23T14:21:19;7.60;99.90
8402;DHT22;4238;48.404;9.498;2024-03-23T14:23:47;8.00;1.00
8402;DHT22;4238;48.404;9.498;2024-03-23T14:26:15;8.20;1.00
8402;DHT22;4238;48.404;9.498;2024-03-23T14:28:43;8.20;1.00
8402;DHT22;4238;48.404;9.498;2024-03-23T14:31:10;8.30;99.90
8402;DHT22;4238;48.404;9.498;2024-03-23T14:33:37;8.30;27.20
8402;DHT22;4238;48.404;9.498;2024-03-23T14:36:05;8.30;99.90
8402;DHT22;4238;48.404;9.498;2024-03-23T14:38:32;8.30;99.90
8402;DHT22;4238;48.404;9.498;2024-03-23T14:40:58;8.40;99.90
8402;DHT22;4238;48.404;9.498;2024-03-23T14:43:28;8.10;1.00
8402;DHT22;4238;48.404;9.498;2024-03-23T14:46:12;7.70;99.90
8402;DHT22;4238;48.404;9.498;2024-03-23T14:48:40;7.30;99.90
8402;DHT22;4238;48.404;9.498;2024-03-23T14:51:07;7.20;99.90
8402;DHT22;4238;48.404;9.498;2024-03-23T14:53:40;7.30;1.00
8402;DHT22;4238;48.404;9.498;2024-03-23T14:56:08;7.30;99.90
8402;DHT22;4238;48.404;9.498;2024-03-23T14:58:41;7.30;1.00
8402;DHT22;4238;48.404;9.498;2024-03-23T15:01:09;7.30;99.90
8402;DHT22;4238;48.404;9.498;2024-03-23T15:03:41;7.30;99.90
8402;DHT22;4238;48.404;9.498;2024-03-23T15:06:08;7.20;1.00
8402;DHT22;4238;48.404;9.498;2024-03-23T15:08:38;7.10;1.00
8402;DHT22;4238;48.404;9.498;2024-03-23T15:11:06;7.10;1.00
8402;DHT22;4238;48.404;9.498;2024-03-23T15:13:33;7.20;1.00
8402;DHT22;4238;48.404;9.498;2024-03-23T15:16:01;7.10;1.00
8402;DHT22;4238;48.404;9.498;2024-03-23T15:18:29;7.30;1.00
8402;DHT22;4238;48.404;9.498;2024-03-23T15:20:58;7.50;1.00
8402;DHT22;4238;48.404;9.498;2024-03-23T15:23:28;7.40;1.00
8402;DHT22;4238;48.404;9.498;2024-03-23T15:25:58;7.30;1.00
8402;DHT22;4238;48.404;9.498;2024-03-23T15:28:29;7.00;1.00
8402;DHT22;4238;48.404;9.498;2024-03-23T15:31:05;6.80;1.00
8402;DHT22;4238;48.404;9.498;2024-03-23T15:33:32;6.40;1.00
8402;DHT22;4238;48.404;9.498;2024-03-23T15:35:59;5.90;1.00
8402;DHT22;4238;48.404;9.498;2024-03-23T15:38:27;5.30;1.00
8402;DHT22;4238;48.404;9.498;2024-03-23T15:40:56;4.90;15.20
8402;DHT22;4238;48.404;9.498;2024-03-23T15:43:29;4.70;34.80
8402;DHT22;4238;48.404;9.498;2024-03-23T15:45:57;4.60;66.60
8402;DHT22;4238;48.404;9.498;2024-03-23T15:48:33;4.60;80.40
8402;DHT22;4238;48.404;9.498;2024-03-23T15:51:03;4.60;85.00
8402;DHT22;4238;48.404;9.498;2024-03-23T15:53:31;4.90;90.70
8402;DHT22;4238;48.404;9.498;2024-03-23T15:55:59;5.30;88.30
8402;DHT22;4238;48.404;9.498;2024-03-23T15:58:27;5.70;60.70
8402;DHT22;4238;48.404;9.498;2024-03-23T16:00:56;5.90;58.60
8402;DHT22;4238;48.404;9.498;2024-03-23T16:03:26;5.90;24.90
8402;DHT22;4238;48.404;9.498;2024-03-23T16:06:02;5.80;21.30
8402;DHT22;4238;48.404;9.498;2024-03-23T16:08:30;5.60;8.10
8402;DHT22;4238;48.404;9.498;2024-03-23T16:11:00;5.70;22.60
8402;DHT22;4238;48.404;9.498;2024-03-23T16:13:27;5.50;21.10
8402;DHT22;4238;48.404;9.498;2024-03-23T16:15:57;5.30;33.20
8402;DHT22;4238;48.404;9.498;2024-03-23T16:18:25;5.30;38.80
8402;DHT22;4238;48.404;9.498;2024-03-23T16:20:56;5.30;33.40
8402;DHT22;4238;48.404;9.498;2024-03-23T16:23:25;5.30;41.70
8402;DHT22;4238;48.404;9.498;2024-03-23T16:25:52;5.20;45.50
8402;DHT22;4238;48.404;9.498;2024-03-23T16:28:30;5.10;34.50
8402;DHT22;4238;48.404;9.498;2024-03-23T16:30:58;5.10;26.60
8402;DHT22;4238;48.404;9.498;2024-03-23T16:33:26;5.00;40.20
8402;DHT22;4238;48.404;9.498;2024-03-23T16:35:57;5.00;26.40
8402;DHT22;4238;48.404;9.498;2024-03-23T16:38:25;5.00;29.40
8402;DHT22;4238;48.404;9.498;2024-03-23T16:40:58;4.90;29.00
8402;DHT22;4238;48.404;9.498;2024-03-23T16:43:26;4.90;26.40
8402;DHT22;4238;48.404;9.498;2024-03-23T16:45:55;4.90;30.00
8402;DHT22;4238;48.404;9.498;2024-03-23T16:48:22;4.90;36.00
8402;DHT22;4238;48.404;9.498;2024-03-23T16:50:48;5.00;29.60
8402;DHT22;4238;48.404;9.498;2024-03-23T16:53:17;5.00;21.80
8402;DHT22;4238;48.404;9.498;2024-03-23T16:55:42;5.00;16.90
8402;DHT22;4238;48.404;9.498;2024-03-23T16:58:10;5.00;14.60
8402;DHT22;4238;48.404;9.498;2024-03-23T17:00:36;5.00;17.10
8402;DHT22;4238;48.404;9.498;2024-03-23T17:03:03;5.00;23.20
8402;DHT22;4238;48.404;9.498;2024-03-23T17:05:29;5.10;20.80
8402;DHT22;4238;48.404;9.498;2024-03-23T17:08:05;5.00;27.40
8402;DHT22;4238;48.404;9.498;2024-03-23T17:10:33;5.00;17.90
8402;DHT22;4238;48.404;9.498;2024-03-23T17:13:00;4.90;18.50
8402;DHT22;4238;48.404;9.498;2024-03-23T17:15:26;4.90;18.40
8402;DHT22;4238;48.404;9.498;2024-03-23T17:17:53;4.80;21.90
8402;DHT22;4238;48.404;9.498;2024-03-23T17:20:19;4.70;20.70
8402;DHT22;4238;48.404;9.498;2024-03-23T17:22:53;4.70;28.40
8402;DHT22;4238;48.404;9.498;2024-03-23T17:25:19;4.60;24.70
8402;DHT22;4238;48.404;9.498;2024-03-23T17:27:48;4.60;33.70
8402;DHT22;4238;48.404;9.498;2024-03-23T17:30:14;4.60;33.30
8402;DHT22;4238;48.404;9.498;2024-03-23T17:32:43;4.50;33.40
8402;DHT22;4238;48.404;9.498;2024-03-23T17:35:10;4.40;32.30
8402;DHT22;4238;48.404;9.498;2024-03-23T17:37:38;4.50;37.80
8402;DHT22;4238;48.404;9.498;2024-03-23T17:40:05;4.40;30.20
8402;DHT22;4238;48.404;9.498;2024-03-23T17:42:34;4.40;32.90
8402;DHT22;4238;48.404;9.498;2024-03-23T17:45:04;4.40;29.80
8402;DHT22;4238;48.404;9.498;2024-03-23T17:47:36;4.30;32.60
8402;DHT22;4238;48.404;9.498;2024-03-23T17:50:04;4.30;31.40
8402;DHT22;4238;48.404;9.498;2024-03-23T17:52:36;4.10;22.50
8402;DHT22;4238;48.404;9.498;2024-03-23T17:55:05;4.10;27.20
8402;DHT22;4238;48.404;9.498;2024-03-23T17:57:33;4.10;29.90
8402;DHT22;4238;48.404;9.498;2024-03-23T18:00:04;4.10;28.60
8402;DHT22;4238;48.404;9.498;2024-03-23T18:02:37;4.10;36.30
8402;DHT22;4238;48.404;9.498;2024-03-23T18:05:38;4.10;33.30
8402;DHT22;4238;48.404;9.498;2024-03-23T18:08:13;4.00;22.00
8402;DHT22;4238;48.404;9.498;2024-03-23T18:10:41;4.00;20.50
8402;DHT22;4238;48.404;9.498;2024-03-23T18:13:37;4.10;13.10
8402;DHT22;4238;48.404;9.498;2024-03-23T18:16:44;4.00;9.30
8402;DHT22;4238;48.404;9.498;2024-03-23T18:19:16;4.10;16.90
8402;DHT22;4238;48.404;9.498;2024-03-23T18:22:19;4.10;7.30
8402;DHT22;4238;48.404;9.498;2024-03-23T18:25:21;4.10;1.00
8402;DHT22;4238;48.404;9.498;2024-03-23T18:27:48;4.00;1.00
8402;DHT22;4238;48.404;9.498;2024-03-23T18:30:16;4.10;1.00
8402;DHT22;4238;48.404;9.498;2024-03-23T18:32:56;4.10;4.70
8402;DHT22;4238;48.404;9.498;2024-03-23T18:35:27;4.00;4.30
8402;DHT22;4238;48.404;9.498;2024-03-23T18:38:00;3.90;25.70
8402;DHT22;4238;48.404;9.498;2024-03-23T18:40:47;3.90;31.90
8402;DHT22;4238;48.404;9.498;2024-03-23T18:43:16;3.80;33.50
8402;DHT22;4238;48.404;9.498;2024-03-23T18:45:46;3.80;37.30
8402;DHT22;4238;48.404;9.498;2024-03-23T18:48:17;3.70;38.20
8402;DHT22;4238;48.404;9.498;2024-03-23T18:50:43;3.70;38.80
8402;DHT22;4238;48.404;9.498;2024-03-23T18:53:10;3.70;35.10
8402;DHT22;4238;48.404;9.498;2024-03-23T18:55:37;3.70;36.50
8402;DHT22;4238;48.404;9.498;2024-03-23T18:58:04;3.60;38.30
8402;DHT22;4238;48.404;9.498;2024-03-23T19:00:30;3.60;38.70
8402;DHT22;4238;48.404;9.498;2024-03-23T19:02:57;3.60;42.30
8402;DHT22;4238;48.404;9.498;2024-03-23T19:05:24;3.60;32.90
8402;DHT22;4238;48.404;9.498;2024-03-23T19:07:51;3.70;29.50
8402;DHT22;4238;48.404;9.498;2024-03-23T19:10:18;3.70;19.80
8402;DHT22;4238;48.404;9.498;2024-03-23T19:12:46;3.70;18.50
8402;DHT22;4238;48.404;9.498;2024-03-23T19:15:12;3.70;20.80
8402;DHT22;4238;48.404;9.498;2024-03-23T19:17:40;3.70;9.80
8402;DHT22;4238;48.404;9.498;2024-03-23T19:20:07;3.70;15.10
8402;DHT22;4238;48.404;9.498;2024-03-23T19:22:36;3.60;15.20
8402;DHT22;4238;48.404;9.498;2024-03-23T19:25:05;3.60;17.70
8402;DHT22;4238;48.404;9.498;2024-03-23T19:27:35;3.50;24.20
8402;DHT22;4238;48.404;9.498;2024-03-23T19:30:05;3.50;16.70
8402;DHT22;4238;48.404;9.498;2024-03-23T19:32:32;3.60;15.10
8402;DHT22;4238;48.404;9.498;2024-03-23T19:34:58;3.60;20.30
8402;DHT22;4238;48.404;9.498;2024-03-23T19:37:24;3.60;11.60
8402;DHT22;4238;48.404;9.498;2024-03-23T19:39:52;3.70;11.10
8402;DHT22;4238;48.404;9.498;2024-03-23T19:42:19;3.60;10.90
8402;DHT22;4238;48.404;9.498;2024-03-23T19:44:45;3.60;12.20
8402;DHT22;4238;48.404;9.498;2024-03-23T19:47:13;3.70;4.40
8402;DHT22;4238;48.404;9.498;2024-03-23T19:49:38;3.70;2.70
8402;DHT22;4238;48.404;9.498;2024-03-23T19:52:06;3.70;2.10
8402;DHT22;4238;48.404;9.498;2024-03-23T19:54:32;3.70;13.10
8402;DHT22;4238;48.404;9.498;2024-03-23T19:57:00;3.80;15.50
8402;DHT22;4238;48.404;9.498;2024-03-23T19:59:26;3.80;9.40
8402;DHT22;4238;48.404;9.498;2024-03-23T20:01:52;3.90;11.10
8402;DHT22;4238;48.404;9.498;2024-03-23T20:04:18;3.90;1.00
8402;DHT22;4238;48.404;9.498;2024-03-23T20:06:45;3.90;4.90
8402;DHT22;4238;48.404;9.498;2024-03-23T20:09:11;3.90;6.80
8402;DHT22;4238;48.404;9.498;2024-03-23T20:11:38;3.80;1.00
8402;DHT22;4238;48.404;9.498;2024-03-23T20:14:05;3.70;2.70
8402;DHT22;4238;48.404;9.498;2024-03-23T20:16:32;3.70;1.00
8402;DHT22;4238;48.404;9.498;2024-03-23T20:18:58;3.50;1.00
8402;DHT22;4238;48.404;9.498;2024-03-23T20:21:24;3.60;12.00
8402;DHT22;4238;48.404;9.498;2024-03-23T20:23:50;3.70;15.80
8402;DHT22;4238;48.404;9.498;2024-03-23T20:26:18;3.60;19.20
8402;DHT22;4238;48.404;9.498;2024-03-23T20:28:44;3.40;14.40
8402;DHT22;4238;48.404;9.498;2024-03-23T20:31:12;3.50;19.70
8402;DHT22;4238;48.404;9.498;2024-03-23T20:33:38;3.50;22.30
8402;DHT22;4238;48.404;9.498;2024-03-23T20:36:05;3.50;17.80
8402;DHT22;4238;48.404;9.498;2024-03-23T20:38:31;3.60;10.60
8402;DHT22;4238;48.404;9.498;2024-03-23T20:40:59;3.70;5.10
8402;DHT22;4238;48.404;9.498;2024-03-23T20:43:25;3.70;9.40
8402;DHT22;4238;48.404;9.498;2024-03-23T20:45:56;3.60;10.40
8402;DHT22;4238;48.404;9.498;2024-03-23T20:48:24;3.60;5.80
8402;DHT22;4238;48.404;9.498;2024-03-23T20:50:58;3.40;3.80
8402;DHT22;4238;48.404;9.498;2024-03-23T20:53:24;3.40;18.20
8402;DHT22;4238;48.404;9.498;2024-03-23T20:55:52;3.40;20.30
8402;DHT22;4238;48.404;9.498;2024-03-23T20:58:19;3.40;22.10
8402;DHT22;4238;48.404;9.498;2024-03-23T21:00:46;3.50;15.00
8402;DHT22;4238;48.404;9.498;2024-03-23T21:03:12;3.50;20.80
8402;DHT22;4238;48.404;9.498;2024-03-23T21:05:40;3.50;18.00
8402;DHT22;4238;48.404;9.498;2024-03-23T21:08:07;3.50;20.50
8402;DHT22;4238;48.404;9.498;2024-03-23T21:10:33;3.50;17.40
8402;DHT22;4238;48.404;9.498;2024-03-23T21:12:59;3.50;13.70
8402;DHT22;4238;48.404;9.498;2024-03-23T21:15:27;3.50;16.70
8402;DHT22;4238;48.404;9.498;2024-03-23T21:17:54;3.50;15.60
8402;DHT22;4238;48.404;9.498;2024-03-23T21:20:20;3.40;20.20
8402;DHT22;4238;48.404;9.498;2024-03-23T21:22:50;3.40;20.90
8402;DHT22;4238;48.404;9.498;2024-03-23T21:25:16;3.40;22.10
8402;DHT22;4238;48.404;9.498;2024-03-23T21:27:43;3.30;19.70
8402;DHT22;4238;48.404;9.498;2024-03-23T21:30:09;3.40;23.70
8402;DHT22;4238;48.404;9.498;2024-03-23T21:32:36;3.40;29.20
8402;DHT22;4238;48.404;9.498;2024-03-23T21:35:02;3.40;31.90